createdAt,value
2016-12-31T00:00:14.638Z,14
2016-12-31T00:01:14.630Z,14
2016-12-31T00:02:14.768Z,12
2016-12-31T00:03:14.683Z,19
2016-12-31T00:04:14.640Z,15
2016-12-31T00:05:14.764Z,17
2016-12-31T00:06:14.706Z,18
2016-12-31T00:07:14.634Z,15
2016-12-31T00:08:14.639Z,15
2016-12-31T00:09:14.645Z,13
2016-12-31T00:10:14.692Z,14
2016-12-31T00:11:14.735Z,15
2016-12-31T00:12:14.804Z,13
2016-12-31T00:13:14.730Z,12
2016-12-31T00:14:14.705Z,17
2016-12-31T00:15:14.793Z,16
2016-12-31T00:16:14.674Z,14
2016-12-31T00:17:14.744Z,16
2016-12-31T00:18:14.642Z,13
2016-12-31T00:19:14.657Z,16
2016-12-31T00:20:14.658Z,14
2016-12-31T00:21:14.661Z,15
2016-12-31T00:22:14.655Z,16
2016-12-31T00:23:14.657Z,18
2016-12-31T00:24:14.654Z,16
2016-12-31T00:25:14.647Z,15
2016-12-31T00:26:14.654Z,15
2016-12-31T00:27:14.653Z,16
2016-12-31T00:28:14.660Z,17
2016-12-31T00:29:18.053Z,16
2016-12-31T00:30:18.258Z,23
2016-12-31T00:31:17.737Z,17
2016-12-31T00:32:14.708Z,26
2016-12-31T00:33:17.576Z,22
2016-12-31T00:34:17.431Z,19
2016-12-31T00:35:17.635Z,14
2016-12-31T00:36:17.624Z,26
2016-12-31T00:37:16.494Z,19
2016-12-31T00:38:17.755Z,21
2016-12-31T00:39:17.956Z,21
2016-12-31T00:40:17.994Z,23
2016-12-31T00:41:17.993Z,22
2016-12-31T00:42:17.803Z,20
2016-12-31T00:43:18.040Z,18
2016-12-31T00:44:17.750Z,17
2016-12-31T00:45:17.899Z,17
2016-12-31T00:46:17.907Z,22
2016-12-31T00:47:17.811Z,19
2016-12-31T00:48:18.889Z,20
2016-12-31T00:49:19.518Z,19
2016-12-31T00:50:19.414Z,15
2016-12-31T00:51:19.499Z,19
2016-12-31T00:52:19.447Z,19
2016-12-31T00:53:17.511Z,24
2016-12-31T00:54:17.402Z,16
2016-12-31T00:55:17.375Z,20
2016-12-31T00:56:17.264Z,26
2016-12-31T00:57:17.355Z,16
2016-12-31T00:58:14.688Z,16
2016-12-31T00:59:14.673Z,19
2016-12-31T01:00:14.680Z,22
2016-12-31T01:01:14.688Z,15
2016-12-31T01:02:14.690Z,17
2016-12-31T01:03:14.684Z,15
2016-12-31T01:04:14.692Z,25
2016-12-31T01:05:14.697Z,15
2016-12-31T01:06:14.699Z,15
2016-12-31T01:07:14.685Z,25
2016-12-31T01:08:14.692Z,16
2016-12-31T01:09:14.684Z,18
2016-12-31T01:10:14.743Z,15
2016-12-31T01:11:14.691Z,19
2016-12-31T01:12:14.699Z,13
2016-12-31T01:13:14.696Z,16
2016-12-31T01:14:14.705Z,17
2016-12-31T01:15:14.708Z,16
2016-12-31T01:16:14.703Z,13
2016-12-31T01:17:14.713Z,17
2016-12-31T01:18:14.712Z,20
2016-12-31T01:19:14.703Z,16
2016-12-31T01:20:14.701Z,19
2016-12-31T01:21:14.716Z,17
2016-12-31T01:22:14.708Z,16
2016-12-31T01:23:14.706Z,14
2016-12-31T01:24:14.717Z,20
2016-12-31T01:25:14.704Z,21
2016-12-31T01:26:14.710Z,15
2016-12-31T01:27:14.715Z,13
2016-12-31T01:28:14.730Z,14
2016-12-31T01:29:14.732Z,15
2016-12-31T01:30:14.725Z,17
2016-12-31T01:31:14.727Z,16
2016-12-31T01:32:14.721Z,14
2016-12-31T01:33:14.733Z,15
2016-12-31T01:34:14.716Z,15
2016-12-31T01:35:14.717Z,16
2016-12-31T01:36:14.717Z,15
2016-12-31T01:37:14.731Z,13
2016-12-31T01:38:14.721Z,18
2016-12-31T01:39:14.723Z,15
2016-12-31T01:40:14.735Z,15
2016-12-31T01:41:14.727Z,16
2016-12-31T01:42:14.734Z,14
2016-12-31T01:43:14.741Z,18
2016-12-31T01:44:14.732Z,19
2016-12-31T01:45:14.740Z,17
2016-12-31T01:46:14.732Z,15
2016-12-31T01:47:14.738Z,13
2016-12-31T01:48:14.730Z,19
2016-12-31T01:49:14.737Z,14
2016-12-31T01:50:14.744Z,15
2016-12-31T01:51:14.749Z,15
2016-12-31T01:52:14.730Z,16
2016-12-31T01:53:14.736Z,17
2016-12-31T01:54:14.749Z,13
2016-12-31T01:55:14.741Z,13
2016-12-31T01:56:14.741Z,15
2016-12-31T01:57:14.737Z,15
2016-12-31T01:58:14.751Z,16
2016-12-31T01:59:14.750Z,15
2016-12-31T02:00:14.760Z,15
2016-12-31T02:01:14.745Z,12
2016-12-31T02:02:14.743Z,18
2016-12-31T02:03:14.743Z,13
2016-12-31T02:04:14.769Z,14
2016-12-31T02:05:14.744Z,14
2016-12-31T02:06:14.765Z,18
2016-12-31T02:07:14.759Z,16
2016-12-31T02:08:14.769Z,14
2016-12-31T02:09:14.758Z,21
2016-12-31T02:10:14.765Z,16
2016-12-31T02:11:14.760Z,16
2016-12-31T02:12:14.796Z,14
2016-12-31T02:13:14.766Z,14
2016-12-31T02:14:14.777Z,16
2016-12-31T02:15:14.794Z,21
2016-12-31T02:16:14.784Z,15
2016-12-31T02:17:14.776Z,14
2016-12-31T02:18:14.782Z,13
2016-12-31T02:19:14.762Z,14
2016-12-31T02:20:14.774Z,15
2016-12-31T02:21:14.784Z,14
2016-12-31T02:22:14.765Z,14
2016-12-31T02:23:14.785Z,15
2016-12-31T02:24:14.792Z,17
2016-12-31T02:25:14.786Z,14
2016-12-31T02:26:14.790Z,15
2016-12-31T02:27:14.799Z,17
2016-12-31T02:28:14.775Z,15
2016-12-31T02:29:14.781Z,14
2016-12-31T02:30:14.773Z,14
2016-12-31T02:31:14.794Z,16
2016-12-31T02:32:14.773Z,15
2016-12-31T02:33:14.779Z,14
2016-12-31T02:34:14.800Z,18
2016-12-31T02:35:14.794Z,14
2016-12-31T02:36:14.782Z,14
2016-12-31T02:37:14.775Z,16
2016-12-31T02:38:14.816Z,13
2016-12-31T02:39:14.793Z,13
2016-12-31T02:40:14.809Z,15
2016-12-31T02:41:14.801Z,13
2016-12-31T02:42:14.793Z,19
2016-12-31T02:43:14.793Z,17
2016-12-31T02:44:14.809Z,16
2016-12-31T02:45:14.802Z,15
2016-12-31T02:46:14.793Z,14
2016-12-31T02:47:14.790Z,15
2016-12-31T02:48:14.797Z,13
2016-12-31T02:49:14.790Z,21
2016-12-31T02:50:14.792Z,15
2016-12-31T02:51:14.798Z,14
2016-12-31T02:52:14.792Z,13
2016-12-31T02:53:14.804Z,13
2016-12-31T02:54:14.806Z,15
2016-12-31T02:55:14.787Z,16
2016-12-31T02:56:15.557Z,14
2016-12-31T02:57:14.802Z,15
2016-12-31T02:58:14.803Z,16
2016-12-31T02:59:14.811Z,14
2016-12-31T03:00:14.804Z,14
2016-12-31T03:01:14.814Z,16
2016-12-31T03:02:14.797Z,15
2016-12-31T03:03:14.795Z,16
2016-12-31T03:04:14.801Z,17
2016-12-31T03:05:14.801Z,14
2016-12-31T03:06:14.808Z,13
2016-12-31T03:07:14.852Z,12
2016-12-31T03:08:14.803Z,18
2016-12-31T03:09:14.800Z,14
2016-12-31T03:10:14.806Z,14
2016-12-31T03:11:14.808Z,15
2016-12-31T03:12:14.814Z,23
2016-12-31T03:13:14.804Z,17
2016-12-31T03:14:14.805Z,17
2016-12-31T03:15:14.812Z,18
2016-12-31T03:16:14.812Z,17
2016-12-31T03:17:14.811Z,16
2016-12-31T03:18:14.812Z,14
2016-12-31T03:19:14.810Z,16
2016-12-31T03:20:14.826Z,17
2016-12-31T03:21:14.826Z,19
2016-12-31T03:22:14.832Z,20
2016-12-31T03:23:14.825Z,17
2016-12-31T03:24:14.831Z,16
2016-12-31T03:25:14.809Z,17
2016-12-31T03:26:14.830Z,25
2016-12-31T03:27:14.837Z,20
2016-12-31T03:28:14.820Z,18
2016-12-31T03:29:14.821Z,18
2016-12-31T03:30:14.829Z,12
2016-12-31T03:31:14.826Z,20
2016-12-31T03:32:14.825Z,19
2016-12-31T03:33:14.832Z,18
2016-12-31T03:34:14.827Z,17
2016-12-31T03:35:14.834Z,19
2016-12-31T03:36:14.838Z,19
2016-12-31T03:37:14.844Z,14
2016-12-31T03:38:14.827Z,19
2016-12-31T03:39:14.833Z,19
2016-12-31T03:40:14.837Z,15
2016-12-31T03:41:14.859Z,21
2016-12-31T03:42:14.847Z,18
2016-12-31T03:43:14.855Z,15
2016-12-31T03:44:14.848Z,20
2016-12-31T03:45:14.855Z,16
2016-12-31T03:46:14.839Z,17
2016-12-31T03:47:14.846Z,18
2016-12-31T03:48:14.852Z,17
2016-12-31T03:49:14.858Z,17
2016-12-31T03:50:14.864Z,16
2016-12-31T03:51:14.855Z,21
2016-12-31T03:52:14.846Z,17
2016-12-31T03:53:14.869Z,18
2016-12-31T03:54:14.859Z,20
2016-12-31T03:55:14.867Z,19
2016-12-31T03:56:14.845Z,18
2016-12-31T03:57:15.489Z,16
2016-12-31T03:58:14.845Z,21
2016-12-31T03:59:14.866Z,20
2016-12-31T04:00:14.849Z,18
2016-12-31T04:01:14.856Z,22
2016-12-31T04:02:14.900Z,22
2016-12-31T04:03:14.892Z,19
2016-12-31T04:04:14.869Z,21
2016-12-31T04:05:14.864Z,23
2016-12-31T04:06:14.869Z,23
2016-12-31T04:07:14.877Z,18
2016-12-31T04:08:14.869Z,19
2016-12-31T04:09:14.876Z,26
2016-12-31T04:10:14.884Z,17
2016-12-31T04:11:14.868Z,18
2016-12-31T04:12:14.868Z,21
2016-12-31T04:13:14.877Z,21
2016-12-31T04:14:14.883Z,21
2016-12-31T04:15:14.875Z,20
2016-12-31T04:16:14.885Z,20
2016-12-31T04:17:14.887Z,22
2016-12-31T04:18:14.869Z,22
2016-12-31T04:19:14.879Z,24
2016-12-31T04:20:14.888Z,27
2016-12-31T04:21:14.888Z,23
2016-12-31T04:22:14.880Z,23
2016-12-31T04:23:14.888Z,22
2016-12-31T04:24:14.897Z,22
2016-12-31T04:25:14.886Z,19
2016-12-31T04:26:14.890Z,22
2016-12-31T04:27:14.926Z,24
2016-12-31T04:28:14.891Z,22
2016-12-31T04:29:14.898Z,20
2016-12-31T04:30:14.890Z,25
2016-12-31T04:31:14.899Z,26
2016-12-31T04:32:14.910Z,22
2016-12-31T04:33:14.895Z,21
2016-12-31T04:34:14.888Z,29
2016-12-31T04:35:14.898Z,26
2016-12-31T04:36:14.907Z,26
2016-12-31T04:37:14.903Z,22
2016-12-31T04:38:14.907Z,23
2016-12-31T04:39:14.886Z,26
2016-12-31T04:40:14.904Z,24
2016-12-31T04:41:14.899Z,21
2016-12-31T04:42:14.929Z,25
2016-12-31T04:43:14.911Z,22
2016-12-31T04:44:14.900Z,28
2016-12-31T04:45:14.907Z,28
2016-12-31T04:46:14.899Z,22
2016-12-31T04:47:14.896Z,22
2016-12-31T04:48:14.913Z,24
2016-12-31T04:49:14.919Z,24
2016-12-31T04:50:14.902Z,26
2016-12-31T04:51:14.910Z,25
2016-12-31T04:52:14.920Z,26
2016-12-31T04:53:14.932Z,22
2016-12-31T04:54:14.911Z,23
2016-12-31T04:55:14.921Z,26
2016-12-31T04:56:14.915Z,26
2016-12-31T04:57:14.971Z,24
2016-12-31T04:58:14.926Z,23
2016-12-31T04:59:14.926Z,23
2016-12-31T05:00:14.928Z,24
2016-12-31T05:01:14.926Z,30
2016-12-31T05:02:14.941Z,28
2016-12-31T05:03:14.938Z,30
2016-12-31T05:04:14.910Z,30
2016-12-31T05:05:14.916Z,28
2016-12-31T05:06:14.925Z,25
2016-12-31T05:07:14.916Z,25
2016-12-31T05:08:14.932Z,26
2016-12-31T05:09:14.929Z,27
2016-12-31T05:10:14.924Z,30
2016-12-31T05:11:14.928Z,30
2016-12-31T05:12:14.921Z,29
2016-12-31T05:13:14.934Z,28
2016-12-31T05:14:14.927Z,26
2016-12-31T05:15:14.928Z,26
2016-12-31T05:16:14.971Z,30
2016-12-31T05:17:14.944Z,25
2016-12-31T05:18:14.938Z,29
2016-12-31T05:19:14.942Z,23
2016-12-31T05:20:14.936Z,28
2016-12-31T05:21:14.942Z,28
2016-12-31T05:22:14.938Z,25
2016-12-31T05:23:14.943Z,29
2016-12-31T05:24:14.951Z,23
2016-12-31T05:25:14.951Z,26
2016-12-31T05:26:14.951Z,29
2016-12-31T05:27:14.997Z,26
2016-12-31T05:28:14.948Z,24
2016-12-31T05:29:14.949Z,27
2016-12-31T05:30:14.949Z,29
2016-12-31T05:31:14.940Z,29
2016-12-31T05:32:14.951Z,24
2016-12-31T05:33:14.959Z,27
2016-12-31T05:34:14.965Z,30
2016-12-31T05:35:14.957Z,24
2016-12-31T05:36:14.951Z,26
2016-12-31T05:37:14.972Z,23
2016-12-31T05:38:14.956Z,28
2016-12-31T05:39:14.972Z,29
2016-12-31T05:40:14.962Z,26
2016-12-31T05:41:14.955Z,26
2016-12-31T05:42:14.990Z,27
2016-12-31T05:43:14.969Z,29
2016-12-31T05:44:14.954Z,28
2016-12-31T05:45:14.969Z,28
2016-12-31T05:46:14.976Z,28
2016-12-31T05:47:14.967Z,32
2016-12-31T05:48:14.967Z,28
2016-12-31T05:49:14.973Z,34
2016-12-31T05:50:14.980Z,27
2016-12-31T05:51:14.961Z,26
2016-12-31T05:52:14.960Z,27
2016-12-31T05:53:14.975Z,30
2016-12-31T05:54:14.978Z,22
2016-12-31T05:55:14.990Z,27
2016-12-31T05:56:14.971Z,25
2016-12-31T05:57:15.018Z,24
2016-12-31T05:58:14.986Z,31
2016-12-31T05:59:15.000Z,27
2016-12-31T06:00:14.998Z,27
2016-12-31T06:01:14.986Z,27
2016-12-31T06:02:14.978Z,27
2016-12-31T06:03:14.984Z,27
2016-12-31T06:04:14.969Z,31
2016-12-31T06:05:14.990Z,28
2016-12-31T06:06:14.975Z,26
2016-12-31T06:07:14.989Z,30
2016-12-31T06:08:14.979Z,32
2016-12-31T06:09:14.973Z,28
2016-12-31T06:10:14.990Z,29
2016-12-31T06:11:14.982Z,24
2016-12-31T06:12:15.018Z,30
2016-12-31T06:13:14.998Z,29
2016-12-31T06:14:14.975Z,26
2016-12-31T06:15:14.995Z,31
2016-12-31T06:16:14.989Z,28
2016-12-31T06:17:14.996Z,30
2016-12-31T06:18:15.010Z,34
2016-12-31T06:19:15.008Z,26
2016-12-31T06:20:15.000Z,29
2016-12-31T06:21:15.015Z,27
2016-12-31T06:22:14.994Z,32
2016-12-31T06:23:14.991Z,29
2016-12-31T06:24:15.028Z,28
2016-12-31T06:25:15.012Z,30
2016-12-31T06:26:14.996Z,26
2016-12-31T06:27:15.033Z,34
2016-12-31T06:28:15.011Z,30
2016-12-31T06:29:14.987Z,32
2016-12-31T06:30:15.017Z,29
2016-12-31T06:31:15.030Z,30
2016-12-31T06:32:15.003Z,31
2016-12-31T06:33:15.009Z,32
2016-12-31T06:34:15.001Z,33
2016-12-31T06:35:15.016Z,29
2016-12-31T06:36:14.999Z,28
2016-12-31T06:37:15.005Z,29
2016-12-31T06:38:15.005Z,29
2016-12-31T06:39:15.005Z,30
2016-12-31T06:40:15.071Z,29
2016-12-31T06:41:15.012Z,32
2016-12-31T06:42:15.047Z,31
2016-12-31T06:43:15.017Z,34
2016-12-31T06:44:15.028Z,33
2016-12-31T06:45:15.024Z,30
2016-12-31T06:46:15.027Z,33
2016-12-31T06:47:15.041Z,33
2016-12-31T06:48:15.019Z,30
2016-12-31T06:49:15.026Z,31
2016-12-31T06:50:15.032Z,34
2016-12-31T06:51:15.025Z,31
2016-12-31T06:52:15.024Z,30
2016-12-31T06:53:15.030Z,26
2016-12-31T06:54:15.064Z,29
2016-12-31T06:55:15.032Z,36
2016-12-31T06:56:15.047Z,27
2016-12-31T06:57:15.081Z,31
2016-12-31T06:58:15.030Z,29
2016-12-31T06:59:15.028Z,28
2016-12-31T07:00:15.034Z,28
2016-12-31T07:01:15.022Z,29
2016-12-31T07:02:15.029Z,32
2016-12-31T07:03:15.035Z,29
2016-12-31T07:04:15.048Z,31
2016-12-31T07:05:15.049Z,30
2016-12-31T07:06:15.050Z,29
2016-12-31T07:07:15.027Z,28
2016-12-31T07:08:15.034Z,33
2016-12-31T07:09:15.052Z,29
2016-12-31T07:10:15.062Z,30
2016-12-31T07:11:15.054Z,30
2016-12-31T07:12:15.040Z,31
2016-12-31T07:13:15.051Z,29
2016-12-31T07:14:15.039Z,30
2016-12-31T07:15:15.067Z,31
2016-12-31T07:16:15.060Z,32
2016-12-31T07:17:15.066Z,31
2016-12-31T07:18:15.054Z,30
2016-12-31T07:19:15.066Z,28
2016-12-31T07:20:15.069Z,30
2016-12-31T07:21:15.061Z,35
2016-12-31T07:22:15.056Z,34
2016-12-31T07:23:15.060Z,30
2016-12-31T07:24:15.065Z,33
2016-12-31T07:25:15.071Z,30
2016-12-31T07:26:15.064Z,29
2016-12-31T07:27:15.058Z,30
2016-12-31T07:28:15.060Z,31
2016-12-31T07:29:15.066Z,31
2016-12-31T07:30:15.060Z,32
2016-12-31T07:31:15.057Z,33
2016-12-31T07:32:15.057Z,34
2016-12-31T07:33:15.053Z,32
2016-12-31T07:34:15.056Z,29
2016-12-31T07:35:15.069Z,32
2016-12-31T07:36:15.062Z,32
2016-12-31T07:37:15.073Z,32
2016-12-31T07:38:15.056Z,29
2016-12-31T07:39:15.062Z,33
2016-12-31T07:40:15.087Z,28
2016-12-31T07:41:15.063Z,34
2016-12-31T07:42:15.069Z,28
2016-12-31T07:43:15.073Z,31
2016-12-31T07:44:15.084Z,32
2016-12-31T07:45:15.181Z,35
2016-12-31T07:46:15.075Z,30
2016-12-31T07:47:15.081Z,30
2016-12-31T07:48:15.076Z,35
2016-12-31T07:49:15.080Z,30
2016-12-31T07:50:15.093Z,31
2016-12-31T07:51:15.067Z,34
2016-12-31T07:52:15.086Z,35
2016-12-31T07:53:15.078Z,37
2016-12-31T07:54:15.093Z,31
2016-12-31T07:55:15.123Z,33
2016-12-31T07:56:15.085Z,37
2016-12-31T07:57:15.107Z,37
2016-12-31T07:58:15.091Z,32
2016-12-31T07:59:15.102Z,30
2016-12-31T08:00:15.211Z,38
2016-12-31T08:01:15.101Z,33
2016-12-31T08:02:15.087Z,34
2016-12-31T08:03:15.084Z,38
2016-12-31T08:04:15.102Z,37
2016-12-31T08:05:15.109Z,32
2016-12-31T08:06:15.092Z,37
2016-12-31T08:07:15.109Z,36
2016-12-31T08:08:15.091Z,32
2016-12-31T08:09:15.123Z,37
2016-12-31T08:10:15.121Z,32
2016-12-31T08:11:15.123Z,30
2016-12-31T08:12:15.115Z,34
2016-12-31T08:13:15.106Z,35
2016-12-31T08:14:15.113Z,36
2016-12-31T08:15:15.120Z,40
2016-12-31T08:16:15.111Z,30
2016-12-31T08:17:15.119Z,42
2016-12-31T08:18:15.108Z,27
2016-12-31T08:19:15.119Z,33
2016-12-31T08:20:15.139Z,26
2016-12-31T08:21:15.116Z,36
2016-12-31T08:22:15.127Z,32
2016-12-31T08:23:15.117Z,30
2016-12-31T08:24:15.112Z,36
2016-12-31T08:25:15.147Z,37
2016-12-31T08:26:15.121Z,32
2016-12-31T08:27:15.203Z,34
2016-12-31T08:28:15.121Z,33
2016-12-31T08:29:15.127Z,32
2016-12-31T08:30:15.150Z,35
2016-12-31T08:31:15.119Z,33
2016-12-31T08:32:15.155Z,32
2016-12-31T08:33:15.129Z,33
2016-12-31T08:34:15.136Z,31
2016-12-31T08:35:15.161Z,34
2016-12-31T08:36:15.134Z,29
2016-12-31T08:37:15.129Z,38
2016-12-31T08:38:15.138Z,34
2016-12-31T08:39:15.137Z,35
2016-12-31T08:40:15.151Z,34
2016-12-31T08:41:15.132Z,32
2016-12-31T08:42:15.148Z,34
2016-12-31T08:43:15.132Z,35
2016-12-31T08:44:15.135Z,33
2016-12-31T08:45:15.168Z,30
2016-12-31T08:46:15.163Z,30
2016-12-31T08:47:15.140Z,33
2016-12-31T08:48:15.146Z,28
2016-12-31T08:49:15.138Z,31
2016-12-31T08:50:15.176Z,31
2016-12-31T08:51:15.137Z,30
2016-12-31T08:52:15.142Z,33
2016-12-31T08:53:15.151Z,30
2016-12-31T08:54:15.149Z,38
2016-12-31T08:55:15.170Z,33
2016-12-31T08:56:15.148Z,29
2016-12-31T08:57:15.171Z,31
2016-12-31T08:58:15.146Z,37
2016-12-31T08:59:15.144Z,37
2016-12-31T09:00:15.204Z,36
2016-12-31T09:01:15.159Z,32
2016-12-31T09:02:15.162Z,36
2016-12-31T09:03:15.151Z,32
2016-12-31T09:04:15.162Z,31
2016-12-31T09:05:15.196Z,33
2016-12-31T09:06:15.164Z,32
2016-12-31T09:07:15.166Z,38
2016-12-31T09:08:15.163Z,42
2016-12-31T09:09:15.162Z,51
2016-12-31T09:10:15.184Z,42
2016-12-31T09:11:15.161Z,51
2016-12-31T09:12:15.173Z,51
2016-12-31T09:13:15.177Z,67
2016-12-31T09:14:15.167Z,78
2016-12-31T09:15:15.205Z,80
2016-12-31T09:16:15.182Z,79
2016-12-31T09:17:15.175Z,84
2016-12-31T09:18:15.182Z,95
2016-12-31T09:19:15.166Z,99
2016-12-31T09:20:15.203Z,92
2016-12-31T09:21:15.181Z,89
2016-12-31T09:22:15.174Z,93
2016-12-31T09:23:15.175Z,92
2016-12-31T09:24:15.180Z,95
2016-12-31T09:25:15.207Z,87
2016-12-31T09:26:15.185Z,78
2016-12-31T09:27:15.189Z,84
2016-12-31T09:28:15.221Z,75
2016-12-31T09:29:15.203Z,94
2016-12-31T09:30:15.238Z,81
2016-12-31T09:31:15.201Z,80
2016-12-31T09:32:15.194Z,87
2016-12-31T09:33:15.186Z,90
2016-12-31T09:34:15.193Z,83
2016-12-31T09:35:15.243Z,87
2016-12-31T09:36:15.202Z,82
2016-12-31T09:37:15.197Z,94
2016-12-31T09:38:15.327Z,89
2016-12-31T09:39:15.211Z,86
2016-12-31T09:40:15.246Z,85
2016-12-31T09:41:15.247Z,74
2016-12-31T09:42:15.211Z,84
2016-12-31T09:43:15.194Z,86
2016-12-31T09:44:15.200Z,84
2016-12-31T09:45:15.223Z,95
2016-12-31T09:46:15.199Z,86
2016-12-31T09:47:15.215Z,88
2016-12-31T09:48:15.208Z,81
2016-12-31T09:49:15.202Z,75
2016-12-31T09:50:15.250Z,84
2016-12-31T09:51:15.303Z,87
2016-12-31T09:52:15.318Z,82
2016-12-31T09:53:15.404Z,78
2016-12-31T09:54:15.295Z,82
2016-12-31T09:55:15.336Z,87
2016-12-31T09:56:15.232Z,84
2016-12-31T09:57:15.263Z,78
2016-12-31T09:58:15.224Z,76
2016-12-31T09:59:15.261Z,77
2016-12-31T10:00:15.484Z,73
2016-12-31T10:01:15.223Z,81
2016-12-31T10:02:15.239Z,66
2016-12-31T10:03:15.259Z,71
2016-12-31T10:04:15.226Z,70
2016-12-31T10:05:15.234Z,70
2016-12-31T10:06:15.226Z,62
2016-12-31T10:07:15.221Z,71
2016-12-31T10:08:15.227Z,75
2016-12-31T10:09:15.262Z,64
2016-12-31T10:10:15.257Z,67
2016-12-31T10:11:15.317Z,74
2016-12-31T10:12:15.231Z,72
2016-12-31T10:13:15.230Z,61
2016-12-31T10:14:15.222Z,71
2016-12-31T10:15:15.244Z,64
2016-12-31T10:16:15.229Z,62
2016-12-31T10:17:15.235Z,66
2016-12-31T10:18:15.243Z,68
2016-12-31T10:19:15.233Z,71
2016-12-31T10:20:15.260Z,65
2016-12-31T10:21:15.233Z,59
2016-12-31T10:22:15.249Z,68
2016-12-31T10:23:15.228Z,56
2016-12-31T10:24:15.235Z,66
2016-12-31T10:25:15.282Z,68
2016-12-31T10:26:15.248Z,58
2016-12-31T10:27:15.256Z,60
2016-12-31T10:28:15.238Z,61
2016-12-31T10:29:15.248Z,60
2016-12-31T10:30:15.254Z,64
2016-12-31T10:31:15.246Z,62
2016-12-31T10:32:15.333Z,65
2016-12-31T10:33:15.273Z,57
2016-12-31T10:34:15.251Z,57
2016-12-31T10:35:15.287Z,64
2016-12-31T10:36:15.248Z,54
2016-12-31T10:37:15.255Z,59
2016-12-31T10:38:15.249Z,58
2016-12-31T10:39:15.258Z,53
2016-12-31T10:40:15.282Z,59
2016-12-31T10:41:15.256Z,60
2016-12-31T10:42:15.264Z,63
2016-12-31T10:43:15.336Z,60
2016-12-31T10:44:15.292Z,53
2016-12-31T10:45:15.475Z,53
2016-12-31T10:46:15.266Z,47
2016-12-31T10:47:15.288Z,55
2016-12-31T10:48:15.252Z,62
2016-12-31T10:49:15.256Z,50
2016-12-31T10:50:15.278Z,58
2016-12-31T10:51:15.269Z,58
2016-12-31T10:52:15.261Z,60
2016-12-31T10:53:15.268Z,49
2016-12-31T10:54:15.293Z,52
2016-12-31T10:55:15.279Z,54
2016-12-31T10:56:15.275Z,56
2016-12-31T10:57:15.264Z,55
2016-12-31T10:58:15.273Z,59
2016-12-31T10:59:15.268Z,58
2016-12-31T11:00:15.301Z,54
2016-12-31T11:01:15.312Z,52
2016-12-31T11:02:15.289Z,51
2016-12-31T11:03:15.269Z,42
2016-12-31T11:04:15.297Z,55
2016-12-31T11:05:15.288Z,52
2016-12-31T11:06:15.290Z,53
2016-12-31T11:07:15.284Z,51
2016-12-31T11:08:15.289Z,53
2016-12-31T11:09:15.279Z,51
2016-12-31T11:10:15.303Z,45
2016-12-31T11:11:15.279Z,47
2016-12-31T11:12:15.282Z,53
2016-12-31T11:13:15.288Z,52
2016-12-31T11:14:15.280Z,42
2016-12-31T11:15:15.294Z,48
2016-12-31T11:16:15.292Z,45
2016-12-31T11:17:15.276Z,47
2016-12-31T11:18:15.284Z,45
2016-12-31T11:19:15.286Z,47
2016-12-31T11:20:15.347Z,41
2016-12-31T11:21:15.298Z,47
2016-12-31T11:22:15.290Z,47
2016-12-31T11:23:15.295Z,50
2016-12-31T11:24:15.299Z,44
2016-12-31T11:25:15.312Z,47
2016-12-31T11:26:15.290Z,40
2016-12-31T11:27:15.288Z,55
2016-12-31T11:28:15.317Z,53
2016-12-31T11:29:15.301Z,50
2016-12-31T11:30:15.317Z,45
2016-12-31T11:31:15.329Z,45
2016-12-31T11:32:15.307Z,50
2016-12-31T11:33:15.313Z,50
2016-12-31T11:34:15.363Z,43
2016-12-31T11:35:15.338Z,48
2016-12-31T11:36:15.306Z,46
2016-12-31T11:37:15.308Z,45
2016-12-31T11:38:15.306Z,46
2016-12-31T11:39:15.308Z,41
2016-12-31T11:40:15.330Z,47
2016-12-31T11:41:15.323Z,44
2016-12-31T11:42:15.323Z,44
2016-12-31T11:43:15.327Z,44
2016-12-31T11:44:15.319Z,46
2016-12-31T11:45:15.370Z,43
2016-12-31T11:46:15.328Z,47
2016-12-31T11:47:15.358Z,49
2016-12-31T11:48:15.334Z,45
2016-12-31T11:49:15.470Z,47
2016-12-31T11:50:15.347Z,43
2016-12-31T11:51:15.372Z,52
2016-12-31T11:52:15.382Z,48
2016-12-31T11:53:15.591Z,45
2016-12-31T11:54:15.377Z,46
2016-12-31T11:55:15.362Z,40
2016-12-31T11:56:15.381Z,40
2016-12-31T11:57:15.343Z,39
2016-12-31T11:58:15.408Z,43
2016-12-31T11:59:15.331Z,44
2016-12-31T12:00:15.356Z,48
2016-12-31T12:01:15.370Z,44
2016-12-31T12:02:15.367Z,41
2016-12-31T12:03:15.342Z,39
2016-12-31T12:04:15.335Z,43
2016-12-31T12:05:15.359Z,40
2016-12-31T12:06:15.374Z,43
2016-12-31T12:07:15.337Z,43
2016-12-31T12:08:15.416Z,51
2016-12-31T12:09:15.352Z,42
2016-12-31T12:10:15.438Z,41
2016-12-31T12:11:15.471Z,43
2016-12-31T12:12:15.333Z,48
2016-12-31T12:13:15.378Z,40
2016-12-31T12:14:15.340Z,41
2016-12-31T12:15:15.444Z,46
2016-12-31T12:16:15.442Z,41
2016-12-31T12:17:15.404Z,47
2016-12-31T12:18:15.361Z,45
2016-12-31T12:19:15.341Z,41
2016-12-31T12:20:15.406Z,40
2016-12-31T12:21:15.419Z,49
2016-12-31T12:22:15.345Z,45
2016-12-31T12:23:15.338Z,49
2016-12-31T12:24:15.345Z,48
2016-12-31T12:25:15.372Z,46
2016-12-31T12:26:15.350Z,44
2016-12-31T12:27:15.359Z,37
2016-12-31T12:28:15.396Z,39
2016-12-31T12:29:15.358Z,46
2016-12-31T12:30:15.372Z,41
2016-12-31T12:31:15.362Z,45
2016-12-31T12:32:15.371Z,45
2016-12-31T12:33:15.396Z,47
2016-12-31T12:34:15.371Z,44
2016-12-31T12:35:15.374Z,47
2016-12-31T12:36:15.382Z,39
2016-12-31T12:37:15.386Z,48
2016-12-31T12:38:15.355Z,43
2016-12-31T12:40:42.193Z,52
2016-12-31T12:41:41.598Z,48
2016-12-31T12:42:41.757Z,47
2016-12-31T12:43:41.876Z,48
2016-12-31T12:44:41.555Z,46
2016-12-31T12:45:41.856Z,47
2016-12-31T12:46:41.954Z,53
2016-12-31T12:47:41.191Z,46
2016-12-31T12:48:44.340Z,48
2016-12-31T12:49:41.637Z,44
2016-12-31T12:50:41.702Z,51
2016-12-31T12:51:39.251Z,55
2016-12-31T12:52:38.937Z,54
2016-12-31T12:53:38.947Z,53
2016-12-31T12:54:38.939Z,48
2016-12-31T12:55:38.936Z,45
2016-12-31T12:56:38.935Z,51
2016-12-31T12:57:38.948Z,51
2016-12-31T12:58:38.943Z,47
2016-12-31T12:59:38.950Z,53
2016-12-31T13:00:38.942Z,50
2016-12-31T13:01:38.948Z,44
2016-12-31T13:02:38.952Z,42
2016-12-31T13:03:38.946Z,44
2016-12-31T13:04:38.946Z,41
2016-12-31T13:05:38.939Z,46
2016-12-31T13:06:38.952Z,40
2016-12-31T13:07:38.952Z,47
2016-12-31T13:08:38.951Z,44
2016-12-31T13:09:38.980Z,44
2016-12-31T13:10:38.961Z,47
2016-12-31T13:11:38.976Z,47
2016-12-31T13:12:38.961Z,45
2016-12-31T13:13:38.955Z,48
2016-12-31T13:14:38.962Z,41
2016-12-31T13:15:38.962Z,52
2016-12-31T13:16:38.966Z,45
2016-12-31T13:17:38.955Z,46
2016-12-31T13:18:38.961Z,50
2016-12-31T13:19:38.961Z,45
2016-12-31T13:20:38.962Z,60
2016-12-31T13:21:38.967Z,61
2016-12-31T13:22:38.986Z,53
2016-12-31T13:23:38.993Z,53
2016-12-31T13:24:38.988Z,52
2016-12-31T13:25:38.983Z,49
2016-12-31T13:26:38.974Z,47
2016-12-31T13:27:38.974Z,42
2016-12-31T13:28:38.966Z,53
2016-12-31T13:29:38.996Z,52
2016-12-31T13:30:38.995Z,51
2016-12-31T13:31:38.978Z,43
2016-12-31T13:32:38.978Z,50
2016-12-31T13:33:38.983Z,41
2016-12-31T13:34:38.978Z,47
2016-12-31T13:35:38.973Z,43
2016-12-31T13:36:38.975Z,43
2016-12-31T13:37:39.901Z,53
2016-12-31T13:38:38.984Z,45
2016-12-31T13:39:38.984Z,52
2016-12-31T13:40:39.021Z,51
2016-12-31T13:41:39.225Z,58
2016-12-31T13:42:39.105Z,52
2016-12-31T13:43:39.127Z,51
2016-12-31T13:44:38.987Z,49
2016-12-31T13:45:39.003Z,46
2016-12-31T13:46:39.171Z,45
2016-12-31T13:47:38.998Z,58
2016-12-31T13:48:39.136Z,45
2016-12-31T13:49:38.983Z,56
2016-12-31T13:50:39.019Z,50
2016-12-31T13:51:39.118Z,47
2016-12-31T13:52:39.302Z,47
2016-12-31T13:53:39.006Z,47
2016-12-31T13:54:39.002Z,46
2016-12-31T13:55:39.011Z,48
2016-12-31T13:56:39.002Z,48
2016-12-31T13:57:39.003Z,49
2016-12-31T13:58:39.002Z,48
2016-12-31T13:59:39.006Z,50
2016-12-31T14:00:39.049Z,52
2016-12-31T14:01:39.008Z,48
2016-12-31T14:02:39.018Z,40
2016-12-31T14:03:39.010Z,44
2016-12-31T14:04:39.127Z,47
2016-12-31T14:05:39.212Z,47
2016-12-31T14:06:39.028Z,47
2016-12-31T14:07:39.020Z,42
2016-12-31T14:08:39.027Z,43
2016-12-31T14:09:39.019Z,48
2016-12-31T14:10:39.027Z,46
2016-12-31T14:11:39.017Z,44
2016-12-31T14:12:39.024Z,49
2016-12-31T14:13:39.036Z,41
2016-12-31T14:14:39.027Z,46
2016-12-31T14:15:39.031Z,41
2016-12-31T14:16:39.049Z,48